Time;durP1;ratioP1;P1;durP2;ratioP2;P2;SDS_P1;SDS_P2;PMS_P1;PMS_P2;Temp;Humidity;BMP_temperature;BMP_pressure;BME280_temperature;BME280_humidity;BME280_pressure;Samples;Min_cycle;Max_cycle;Signal;HPM_P1;HPM_P2
2021/06/11 00:04:29;;;;;;;;;;;;;;;;;;7397574;40;1122;-11
2021/06/11 00:10:06;;;;;;;;;;;;;;;;;;7413127;40;1479;-11
2021/06/11 00:15:27;;;;;;;;;;;;;;;;;;7412724;40;1285;-11
2021/06/11 00:20:48;;;;;;;;;;;;;;;;;;7417645;40;1931;-11
2021/06/11 00:26:09;;;;;;;;;;;;;;;;;;7412671;40;1303;-11
2021/06/11 00:31:43;;;;;;;;;;;;;;;;;;7412780;40;1011;-11
2021/06/11 00:37:06;;;;;;;;;;;;;;;;;;7410701;40;1093;-10
2021/06/11 00:42:41;;;;;;;;;;;;;;;;;;7411111;40;1893;-11
2021/06/11 00:48:02;;;;;;;;;;;;;;;;;;7412436;40;1974;-11
2021/06/11 00:53:22;;;;;;;;;;;;;;;;;;7412854;40;952;-10
2021/06/11 00:58:43;;;;;;;;;;;;;;;;;;7412612;40;1873;-11
2021/06/11 01:04:04;;;;;;;;;;;;;;;;;;7424554;39;1589;-11
2021/06/11 01:09:26;;;;;;;;;;;;;;;;;;7389277;40;1171;-11
2021/06/11 01:14:47;;;;;;;;;;;;;;;;;;7382605;40;1193;-10
2021/06/11 01:20:10;;;;;;;;;;;;;;;;;;7389902;40;1956;-10
2021/06/11 01:25:34;;;;;;;;;;;;;;;;;;7390654;40;1400;-11
2021/06/11 01:30:56;;;;;;;;;;;;;;;;;;7389353;40;968;-11
2021/06/11 01:36:19;;;;;;;;;;;;;;;;;;7390488;40;1385;-11
2021/06/11 01:41:42;;;;;;;;;;;;;;;;;;7370989;40;1939;-10
2021/06/11 01:47:04;;;;;;;;;;;;;;;;;;7371327;40;1103;-11
2021/06/11 01:52:26;;;;;;;;;;;;;;;;;;7394021;40;1122;-11
2021/06/11 01:57:47;;;;;;;;;;;;;;;;;;7393641;40;1383;-10
2021/06/11 02:03:09;;;;;;;;;;;;;;;;;;7393958;40;1869;-10
2021/06/11 02:08:30;;;;;;;;;;;;;;;;;;7410869;40;1324;-11
2021/06/11 02:13:52;;;;;;;;;;;;;;;;;;7414756;40;1164;-11
2021/06/11 02:19:14;;;;;;;;;;;;;;;;;;7405522;40;1867;-10
2021/06/11 02:24:37;;;;;;;;;;;;;;;;;;7414130;40;1655;-11
2021/06/11 02:29:57;;;;;;;;;;;;;;;;;;7414234;40;1025;-11
2021/06/11 02:35:20;;;;;;;;;;;;;;;;;;7419494;40;824;-11
2021/06/11 02:40:41;;;;;;;;;;;;;;;;;;7419545;40;1870;-11
2021/06/11 02:46:20;;;;;;;;;;;;;;;;;;7413567;40;1344;-10
2021/06/11 02:51:56;;;;;;;;;;;;;;;;;;7411822;40;1391;-11
2021/06/11 02:57:44;;;;;;;;;;;;;;;;;;7413542;40;1486;-11
2021/06/11 03:03:10;;;;;;;;;;;;;;;;;;7414277;40;1882;-11
2021/06/11 03:08:48;;;;;;;;;;;;;;;;;;7413871;40;1006;-11
2021/06/11 03:14:11;;;;;;;;;;;;;;;;;;7413897;40;905;-11
2021/06/11 03:19:37;;;;;;;;;;;;;;;;;;7413161;40;1888;-10
2021/06/11 03:25:01;;;;;;;;;;;;;;;;;;7413674;40;1209;-10
2021/06/11 03:30:23;;;;;;;;;;;;;;;;;;7413788;40;1107;-11
2021/06/11 03:36:17;;;;;;;;;;;;;;;;;;7413010;40;1580;-11
2021/06/11 03:41:53;;;;;;;;;;;;;;;;;;7411658;40;1942;-11
2021/06/11 03:47:15;;;;;;;;;;;;;;;;;;7413198;40;1165;-11
2021/06/11 03:52:39;;;;;;;;;;;;;;;;;;7404371;40;1039;-11
2021/06/11 03:58:35;;;;;;;;;;;;;;;;;;7411396;40;940;-11
2021/06/11 04:03:56;;;;;;;;;;;;;;;;;;7413235;40;1073;-11
2021/06/11 04:09:25;;;;;;;;;;;;;;;;;;7413203;40;1077;-11
2021/06/11 04:14:48;;;;;;;;;;;;;;;;;;7413125;40;1530;-11
2021/06/11 04:20:13;;;;;;;;;;;;;;;;;;7412971;40;1941;-10
2021/06/11 04:25:37;;;;;;;;;;;;;;;;;;7412456;40;1291;-11
2021/06/11 04:30:58;;;;;;;;;;;;;;;;;;7413052;40;888;-11
2021/06/11 04:36:21;;;;;;;;;;;;;;;;;;7411595;40;1506;-11
2021/06/11 04:41:42;;;;;;;;;;;;;;;;;;7410485;40;1874;-11
2021/06/11 04:47:03;;;;;;;;;;;;;;;;;;7412913;40;1263;-11
2021/06/11 04:52:24;;;;;;;;;;;;;;;;;;7412374;40;1415;-11
2021/06/11 04:57:45;;;;;;;;;;;;;;;;;;7412346;40;1089;-11
2021/06/11 05:03:06;;;;;;;;;;;;;;;;;;7417569;40;1939;-10
2021/06/11 05:08:42;;;;;;;;;;;;;;;;;;7412021;40;1045;-11
2021/06/11 05:14:03;;;;;;;;;;;;;;;;;;7413238;40;974;-10
2021/06/11 05:19:24;;;;;;;;;;;;;;;;;;7412584;40;1931;-11
2021/06/11 05:25:01;;;;;;;;;;;;;;;;;;7412980;40;1221;-11
2021/06/11 05:30:23;;;;;;;;;;;;;;;;;;7415149;40;1183;-11
2021/06/11 05:35:45;;;;;;;;;;;;;;;;;;7410483;40;1542;-11
2021/06/11 05:41:06;;;;;;;;;;;;;;;;;;7403420;40;1882;-11
2021/06/11 05:46:41;;;;;;;;;;;;;;;;;;7404340;40;1399;-11
2021/06/11 05:52:02;;;;;;;;;;;;;;;;;;7412280;40;1239;-12
2021/06/11 05:57:23;;;;;;;;;;;;;;;;;;7164491;40;10000353;-12
2021/06/11 06:02:44;;;;;;;;;;;;;;;;;;7413108;40;1897;-12
2021/06/11 06:08:05;;;;;;;;;;;;;;;;;;7417821;40;1605;-12
2021/06/11 06:13:27;;;;;;;;;;;;;;;;;;7402984;40;1484;-12
2021/06/11 06:18:48;;;;;;;;;;;;;;;;;;7405475;40;1397;-12
2021/06/11 06:24:09;;;;;;;;;;;;;;;;;;7411360;40;1536;-12
2021/06/11 06:29:31;;;;;;;;;;;;;;;;;;7411537;40;1306;-12
2021/06/11 06:34:51;;;;;;;;;;;;;;;;;;7411597;40;977;-12
2021/06/11 06:40:13;;;;;;;;;;;;;;;;;;7413588;40;1905;-11
2021/06/11 06:45:48;;;;;;;;;;;;;;;;;;7425514;39;1016;-12
2021/06/11 06:51:09;;;;;;;;;;;;;;;;;;7432199;40;1173;-11
2021/06/11 06:56:30;;;;;;;;;;;;;;;;;;7419833;40;2478;-12
2021/06/11 07:02:05;;;;;;;;;;;;;;;;;;7411199;40;1953;-12
2021/06/11 07:07:40;;;;;;;;;;;;;;;;;;7410258;40;948;-12
2021/06/11 07:13:02;;;;;;;;;;;;;;;;;;7401947;40;1540;-12
2021/06/11 07:18:23;;;;;;;;;;;;;;;;;;7411434;40;1193;-12
2021/06/11 07:23:43;;;;;;;;;;;;;;;;;;7411477;40;1889;-12
2021/06/11 07:29:05;;;;;;;;;;;;;;;;;;7404935;40;1136;-12
2021/06/11 07:34:25;;;;;;;;;;;;;;;;;;7413173;40;1338;-12
2021/06/11 07:39:46;;;;;;;;;;;;;;;;;;7403245;40;1944;-13
2021/06/11 07:45:08;;;;;;;;;;;;;;;;;;7411536;40;1317;-10
2021/06/11 07:50:30;;;;;;;;;;;;;;;;;;7412933;40;1339;-10
2021/06/11 07:55:51;;;;;;;;;;;;;;;;;;7418420;40;1272;-10
2021/06/11 08:01:12;;;;;;;;;;;;;;;;;;7413055;40;1886;-10
2021/06/11 08:06:33;;;;;;;;;;;;;;;;;;7412889;40;961;-11
2021/06/11 08:11:54;;;;;;;;;;;;;;;;;;7415316;40;1901;-12
2021/06/11 08:17:15;;;;;;;;;;;;;;;;;;7412995;40;1122;-11
2021/06/11 08:22:37;;;;;;;;;;;;;;;;;;7403786;40;1874;-11
2021/06/11 08:27:59;;;;;;;;;;;;;;;;;;7403669;40;971;-12
2021/06/11 08:33:19;;;;;;;;;;;;;;;;;;7412649;40;976;-12
2021/06/11 08:38:40;;;;;;;;;;;;;;;;;;7412754;40;1229;-12
2021/06/11 08:44:01;;;;;;;;;;;;;;;;;;7407207;40;1931;-12
2021/06/11 08:49:23;;;;;;;;;;;;;;;;;;7406548;40;1330;-12
2021/06/11 08:54:58;;;;;;;;;;;;;;;;;;7406236;40;1086;-12
2021/06/11 09:00:20;;;;;;;;;;;;;;;;;;7397688;40;1934;-13
2021/06/11 09:05:42;;;;;;;;;;;;;;;;;;7404715;40;1611;-12
2021/06/11 09:11:10;;;;;;;;;;;;;;;;;;7405439;40;1445;-12
2021/06/11 09:16:45;;;;;;;;;;;;;;;;;;7411236;40;1472;-12
2021/06/11 09:22:06;;;;;;;;;;;;;;;;;;7406251;40;1886;-11
2021/06/11 09:27:28;;;;;;;;;;;;;;;;;;7405820;40;1361;-12
2021/06/11 09:32:59;;;;;;;;;;;;;;;;;;7405776;40;1218;-12
2021/06/11 09:38:25;;;;;;;;;;;;;;;;;;7404429;40;1494;-12
2021/06/11 09:43:56;;;;;;;;;;;;;;;;;;7396990;40;1878;-12
2021/06/11 09:49:18;;;;;;;;;;;;;;;;;;7418272;39;897;-12
2021/06/11 09:54:53;;;;;;;;;;;;;;;;;;7404296;40;1531;-12
2021/06/11 10:00:28;;;;;;;;;;;;;;;;;;7404729;40;1939;-12
2021/06/11 10:05:50;;;;;;;;;;;;;;;;;;7415162;40;923;-13
2021/06/11 10:11:14;;;;;;;;;;;;;;;;;;7414299;40;1000;-12
2021/06/11 10:16:35;;;;;;;;;;;;;;;;;;7414888;40;1209;-12
2021/06/11 10:22:10;;;;;;;;;;;;;;;;;;7412756;40;1950;-12
2021/06/11 10:27:31;;;;;;;;;;;;;;;;;;7414848;40;894;-12
2021/06/11 10:32:53;;;;;;;;;;;;;;;;;;7420352;40;1291;-12
2021/06/11 10:38:30;;;;;;;;;;;;;;;;;;7414511;40;1187;-12
2021/06/11 10:44:25;;;;;;;;;;;;;;;;;;7413590;40;1894;-12
2021/06/11 10:50:05;;;;;;;;;;;;;;;;;;7413840;40;1360;-12
2021/06/11 10:55:26;;;;;;;;;;;;;;;;;;7413432;40;1152;-12
2021/06/11 11:01:21;;;;;;;;;;;;;;;;;;7413825;40;1882;-12
2021/06/11 11:06:42;;;;;;;;;;;;;;;;;;7419052;40;1348;-12
2021/06/11 11:12:03;;;;;;;;;;;;;;;;;;7412905;40;1032;-13
2021/06/11 11:17:24;;;;;;;;;;;;;;;;;;7417276;40;1345;-12
2021/06/11 11:22:46;;;;;;;;;;;;;;;;;;7416230;40;1940;-12
2021/06/11 11:28:09;;;;;;;;;;;;;;;;;;7409836;40;1143;-13
2021/06/11 11:33:31;;;;;;;;;;;;;;;;;;7416233;40;1072;-13
2021/06/11 11:38:52;;;;;;;;;;;;;;;;;;7411337;40;976;-12
2021/06/11 11:44:13;;;;;;;;;;;;;;;;;;7415441;40;1924;-12
2021/06/11 11:49:43;;;;;;;;;;;;;;;;;;7417554;40;1206;-12
2021/06/11 11:55:20;;;;;;;;;;;;;;;;;;7417911;40;970;-12
2021/06/11 12:00:41;;;;;;;;;;;;;;;;;;7418166;40;1878;-13
2021/06/11 12:06:02;;;;;;;;;;;;;;;;;;7418381;40;1511;-12
2021/06/11 12:11:37;;;;;;;;;;;;;;;;;;7412381;40;1533;-12
2021/06/11 12:17:12;;;;;;;;;;;;;;;;;;7412837;40;1192;-12
2021/06/11 12:22:32;;;;;;;;;;;;;;;;;;7412153;40;1940;-13
2021/06/11 12:27:53;;;;;;;;;;;;;;;;;;7412845;40;1020;-12
2021/06/11 12:33:29;;;;;;;;;;;;;;;;;;7404224;40;1514;-13
2021/06/11 12:38:50;;;;;;;;;;;;;;;;;;7413025;40;1132;-12
2021/06/11 12:44:25;;;;;;;;;;;;;;;;;;7412008;40;1902;-12
2021/06/11 12:49:47;;;;;;;;;;;;;;;;;;7403259;40;1300;-13
2021/06/11 12:55:09;;;;;;;;;;;;;;;;;;7412313;40;1375;-13
2021/06/11 13:00:31;;;;;;;;;;;;;;;;;;7403452;40;1882;-13
2021/06/11 13:06:05;;;;;;;;;;;;;;;;;;7411912;40;1124;-12
2021/06/11 13:11:26;;;;;;;;;;;;;;;;;;7412089;40;1228;-13
2021/06/11 13:17:01;;;;;;;;;;;;;;;;;;7417129;40;1613;-13
2021/06/11 13:22:23;;;;;;;;;;;;;;;;;;7411760;40;1948;-12
2021/06/11 13:27:44;;;;;;;;;;;;;;;;;;7411709;40;1168;-13
2021/06/11 13:33:19;;;;;;;;;;;;;;;;;;7412033;40;915;-13
2021/06/11 13:38:40;;;;;;;;;;;;;;;;;;7427424;39;1506;-13
2021/06/11 13:44:15;;;;;;;;;;;;;;;;;;7419751;40;1898;-12
2021/06/11 13:49:50;;;;;;;;;;;;;;;;;;7419148;40;1035;-13
2021/06/11 13:55:12;;;;;;;;;;;;;;;;;;7419090;40;1004;-13
2021/06/11 14:00:33;;;;;;;;;;;;;;;;;;7414721;40;1880;-13
2021/06/11 14:05:55;;;;;;;;;;;;;;;;;;7414592;40;1237;-12
2021/06/11 14:11:30;;;;;;;;;;;;;;;;;;7391706;40;981;-13
2021/06/11 14:16:52;;;;;;;;;;;;;;;;;;7393824;40;1283;-13
2021/06/11 14:22:13;;;;;;;;;;;;;;;;;;7393181;40;1880;-12
2021/06/11 14:27:33;;;;;;;;;;;;;;;;;;7393539;40;1316;-12
2021/06/11 14:32:54;;;;;;;;;;;;;;;;;;7405418;40;1055;-13
2021/06/11 14:38:16;;;;;;;;;;;;;;;;;;7415153;40;1005;-12
2021/06/11 14:43:51;;;;;;;;;;;;;;;;;;7386137;40;1921;-12
2021/06/11 14:49:12;;;;;;;;;;;;;;;;;;7393388;40;1058;-13
2021/06/11 14:54:35;;;;;;;;;;;;;;;;;;7392652;40;1362;-13
2021/06/11 15:00:11;;;;;;;;;;;;;;;;;;7392725;40;1005;-13
2021/06/11 15:05:33;;;;;;;;;;;;;;;;;;7383501;40;1447;-13
2021/06/11 15:11:07;;;;;;;;;;;;;;;;;;7412442;40;1075;-13
2021/06/11 15:16:43;;;;;;;;;;;;;;;;;;7398597;40;1302;-12
2021/06/11 15:22:03;;;;;;;;;;;;;;;;;;7413209;40;1953;-13
2021/06/11 15:27:38;;;;;;;;;;;;;;;;;;7411694;40;1679;-13
2021/06/11 15:32:59;;;;;;;;;;;;;;;;;;7412802;40;1346;-14
2021/06/11 15:38:21;;;;;;;;;;;;;;;;;;7397413;40;1559;-13
2021/06/11 15:43:42;;;;;;;;;;;;;;;;;;7412926;40;1878;-13
2021/06/11 15:49:03;;;;;;;;;;;;;;;;;;7412228;40;1480;-13
2021/06/11 15:54:24;;;;;;;;;;;;;;;;;;7412418;40;1086;-12
2021/06/11 15:59:47;;;;;;;;;;;;;;;;;;7402864;40;2169;-13
2021/06/11 16:05:08;;;;;;;;;;;;;;;;;;7412213;40;1942;-14
2021/06/11 16:10:44;;;;;;;;;;;;;;;;;;7404376;40;1112;-15
2021/06/11 16:16:18;;;;;;;;;;;;;;;;;;7411626;40;1178;-13
2021/06/11 16:21:39;;;;;;;;;;;;;;;;;;7411307;40;1873;-13
2021/06/11 16:27:14;;;;;;;;;;;;;;;;;;7407284;40;1263;-13
2021/06/11 16:32:35;;;;;;;;;;;;;;;;;;7413461;40;1360;-13
2021/06/11 16:37:56;;;;;;;;;;;;;;;;;;7407107;40;1215;-13
2021/06/11 16:43:27;;;;;;;;;;;;;;;;;;7410062;40;72189;-12
2021/06/11 16:49:02;;;;;;;;;;;;;;;;;;7416980;40;1079;-13
2021/06/11 16:54:37;;;;;;;;;;;;;;;;;;7411726;40;1428;-14
2021/06/11 17:00:13;;;;;;;;;;;;;;;;;;7412112;40;958;-14
2021/06/11 17:05:35;;;;;;;;;;;;;;;;;;7417557;40;1976;-15
2021/06/11 17:10:57;;;;;;;;;;;;;;;;;;7395433;40;1582;-14
2021/06/11 17:16:18;;;;;;;;;;;;;;;;;;7399976;40;1314;-14
2021/06/11 17:21:39;;;;;;;;;;;;;;;;;;7412166;40;1907;-15
2021/06/11 17:27:00;;;;;;;;;;;;;;;;;;7411782;40;1210;-14
2021/06/11 17:32:22;;;;;;;;;;;;;;;;;;7403053;40;1307;-14
2021/06/11 17:37:58;;;;;;;;;;;;;;;;;;7403922;40;1194;-14
2021/06/11 17:43:24;;;;;;;;;;;;;;;;;;7417121;40;1931;-13
2021/06/11 17:48:46;;;;;;;;;;;;;;;;;;7412713;40;1104;-13
2021/06/11 17:54:08;;;;;;;;;;;;;;;;;;7401973;40;2252;-12
2021/06/11 17:59:33;;;;;;;;;;;;;;;;;;7408450;40;2031;-13
2021/06/11 18:04:55;;;;;;;;;;;;;;;;;;7160574;40;10000487;-14
2021/06/11 18:10:16;;;;;;;;;;;;;;;;;;7408310;40;1619;-15
2021/06/11 18:15:37;;;;;;;;;;;;;;;;;;7391077;40;1195;-13
2021/06/11 18:21:28;;;;;;;;;;;;;;;;;;7408656;40;1931;-13
2021/06/11 18:27:02;;;;;;;;;;;;;;;;;;7403020;40;1623;-14
2021/06/11 18:32:37;;;;;;;;;;;;;;;;;;7395805;40;1398;-14
2021/06/11 18:37:58;;;;;;;;;;;;;;;;;;7409819;40;1408;-14
2021/06/11 18:43:20;;;;;;;;;;;;;;;;;;7406988;40;1935;-15
2021/06/11 18:48:47;;;;;;;;;;;;;;;;;;7402102;40;1185;-14
2021/06/11 18:54:11;;;;;;;;;;;;;;;;;;7409678;40;1015;-14
2021/06/11 18:59:33;;;;;;;;;;;;;;;;;;7410521;40;1422;-13
2021/06/11 19:04:55;;;;;;;;;;;;;;;;;;7411174;40;2822;-14
2021/06/11 19:10:23;;;;;;;;;;;;;;;;;;7402273;40;1217;-14
2021/06/11 19:15:44;;;;;;;;;;;;;;;;;;7408486;40;1368;-14
2021/06/11 19:21:09;;;;;;;;;;;;;;;;;;7410786;40;1971;-15
2021/06/11 19:26:36;;;;;;;;;;;;;;;;;;7410486;40;968;-14
2021/06/11 19:32:11;;;;;;;;;;;;;;;;;;7410369;40;910;-14
2021/06/11 19:37:36;;;;;;;;;;;;;;;;;;7412312;40;1552;-13
2021/06/11 19:43:01;;;;;;;;;;;;;;;;;;7383938;40;1921;-14
2021/06/11 19:48:22;;;;;;;;;;;;;;;;;;7407494;40;1584;-14
2021/06/11 19:53:44;;;;;;;;;;;;;;;;;;7411644;40;1040;-14
2021/06/11 19:59:20;;;;;;;;;;;;;;;;;;7417158;40;1181;-13
2021/06/11 20:04:41;;;;;;;;;;;;;;;;;;7418687;40;1878;-14
2021/06/11 20:10:02;;;;;;;;;;;;;;;;;;7412889;40;1101;-14
2021/06/11 20:15:23;;;;;;;;;;;;;;;;;;7404493;40;1212;-14
2021/06/11 20:20:59;;;;;;;;;;;;;;;;;;7396901;40;1413;-14
2021/06/11 20:26:20;;;;;;;;;;;;;;;;;;7397459;40;1143;-15
2021/06/11 20:31:41;;;;;;;;;;;;;;;;;;7412842;40;1110;-14
2021/06/11 20:37:02;;;;;;;;;;;;;;;;;;7412827;40;987;-14
2021/06/11 20:42:24;;;;;;;;;;;;;;;;;;7403761;40;1924;-14
2021/06/11 20:47:59;;;;;;;;;;;;;;;;;;7404412;40;1496;-14
2021/06/11 20:53:21;;;;;;;;;;;;;;;;;;7412555;40;1048;-20
2021/06/11 20:58:56;;;;;;;;;;;;;;;;;;7404814;40;1539;-14
2021/06/11 21:04:17;;;;;;;;;;;;;;;;;;7411553;40;1883;-14
2021/06/11 21:09:38;;;;;;;;;;;;;;;;;;7411841;40;1219;-14
2021/06/11 21:14:59;;;;;;;;;;;;;;;;;;7412221;40;1528;-15
2021/06/11 21:20:20;;;;;;;;;;;;;;;;;;7412103;40;1528;-15
2021/06/11 21:25:41;;;;;;;;;;;;;;;;;;7403472;40;1866;-15
2021/06/11 21:31:03;;;;;;;;;;;;;;;;;;7403189;40;1016;-14
2021/06/11 21:36:24;;;;;;;;;;;;;;;;;;7411775;40;930;-15
2021/06/11 21:41:45;;;;;;;;;;;;;;;;;;7411147;40;1948;-14
2021/06/11 21:47:20;;;;;;;;;;;;;;;;;;7411086;40;1368;-15
2021/06/11 21:52:55;;;;;;;;;;;;;;;;;;7402548;40;1491;-16
2021/06/11 21:58:16;;;;;;;;;;;;;;;;;;7413826;40;1142;-15
2021/06/11 22:03:37;;;;;;;;;;;;;;;;;;7414654;40;1935;-15
2021/06/11 22:08:59;;;;;;;;;;;;;;;;;;7405184;40;1603;-15
2021/06/11 22:14:19;;;;;;;;;;;;;;;;;;7414358;40;1182;-15
2021/06/11 22:19:40;;;;;;;;;;;;;;;;;;7410192;40;1473;-15
2021/06/11 22:25:01;;;;;;;;;;;;;;;;;;7404742;40;1893;-15
2021/06/11 22:30:37;;;;;;;;;;;;;;;;;;7413333;40;1131;-13
2021/06/11 22:35:59;;;;;;;;;;;;;;;;;;7426542;40;973;-14
2021/06/11 22:41:20;;;;;;;;;;;;;;;;;;7418570;40;1258;-13
2021/06/11 22:46:55;;;;;;;;;;;;;;;;;;7426969;40;1601;-14
2021/06/11 22:52:16;;;;;;;;;;;;;;;;;;7434835;40;1769;-14
2021/06/11 22:57:37;;;;;;;;;;;;;;;;;;7425664;40;1314;-14
2021/06/11 23:02:58;;;;;;;;;;;;;;;;;;7435275;40;1882;-14
2021/06/11 23:08:34;;;;;;;;;;;;;;;;;;7433999;39;1136;-14
2021/06/11 23:13:55;;;;;;;;;;;;;;;;;;7413809;40;1273;-14
2021/06/11 23:19:30;;;;;;;;;;;;;;;;;;7400029;40;1097;-14
2021/06/11 23:24:55;;;;;;;;;;;;;;;;;;7397214;40;2250;-14
2021/06/11 23:30:16;;;;;;;;;;;;;;;;;;7411742;40;1552;-14
2021/06/11 23:35:51;;;;;;;;;;;;;;;;;;7413506;40;1228;-14
2021/06/11 23:41:26;;;;;;;;;;;;;;;;;;7413153;40;1286;-15
2021/06/11 23:46:46;;;;;;;;;;;;;;;;;;7413445;40;1376;-14
2021/06/11 23:52:09;;;;;;;;;;;;;;;;;;7413653;40;1193;-15
2021/06/11 23:57:31;;;;;;;;;;;;;;;;;;7411612;40;1037;-15
